createdAt,value
2023-04-08T00:00:13.078Z,10.10
2023-04-08T00:02:43.525Z,11.50
2023-04-08T00:05:12.215Z,9.40
2023-04-08T00:07:42.036Z,9.40
2023-04-08T00:10:10.563Z,11.90
2023-04-08T00:12:38.706Z,9.60
2023-04-08T00:15:07.673Z,10.90
2023-04-08T00:17:36.136Z,8.10
2023-04-08T00:20:06.072Z,9.10
2023-04-08T00:22:35.958Z,8.50
2023-04-08T00:25:06.876Z,9.40
2023-04-08T00:27:39.232Z,8.40
2023-04-08T00:30:09.805Z,10.00
2023-04-08T00:32:38.080Z,10.70
2023-04-08T00:35:06.936Z,9.40
2023-04-08T00:37:35.285Z,9.40
2023-04-08T00:40:05.585Z,10.60
2023-04-08T00:42:33.786Z,11.90
2023-04-08T00:45:01.930Z,12.20
2023-04-08T00:47:31.033Z,11.00
2023-04-08T00:49:59.636Z,11.00
2023-04-08T00:52:27.767Z,9.50
2023-04-08T00:54:57.247Z,9.60
2023-04-08T00:57:25.494Z,9.80
2023-04-08T01:00:01.019Z,9.80
2023-04-08T01:02:57.210Z,11.70
2023-04-08T01:05:34.995Z,10.20
2023-04-08T01:08:03.152Z,10.10
2023-04-08T01:10:31.918Z,10.90
2023-04-08T01:13:02.330Z,11.10
2023-04-08T01:15:30.988Z,10.70
2023-04-08T01:17:59.600Z,10.70
2023-04-08T01:20:27.882Z,11.20
2023-04-08T01:23:03.980Z,11.10
2023-04-08T01:25:32.569Z,10.50
2023-04-08T01:28:02.250Z,11.70
2023-04-08T01:30:31.217Z,11.10
2023-04-08T01:32:59.859Z,12.40
2023-04-08T01:35:28.106Z,10.60
2023-04-08T01:37:57.139Z,10.50
2023-04-08T01:40:25.311Z,10.60
2023-04-08T01:42:56.112Z,11.00
2023-04-08T01:45:24.228Z,11.40
2023-04-08T01:47:52.730Z,12.10
2023-04-08T01:50:21.211Z,11.50
2023-04-08T01:52:49.963Z,11.90
2023-04-08T01:55:20.168Z,12.10
2023-04-08T01:57:50.192Z,11.50
2023-04-08T02:00:26.037Z,12.10
2023-04-08T02:02:54.649Z,11.80
2023-04-08T02:05:22.995Z,12.30
2023-04-08T02:07:52.168Z,11.70
2023-04-08T02:10:25.328Z,10.70
2023-04-08T02:12:54.085Z,10.60
2023-04-08T02:15:22.433Z,14.00
2023-04-08T02:18:04.298Z,14.80
2023-04-08T02:20:40.878Z,12.50
2023-04-08T02:23:15.013Z,15.50
2023-04-08T02:25:44.669Z,13.00
2023-04-08T02:28:12.855Z,14.80
2023-04-08T02:30:48.389Z,12.30
2023-04-08T02:33:19.941Z,12.80
2023-04-08T02:35:50.765Z,13.50
2023-04-08T02:38:24.288Z,12.00
2023-04-08T02:40:54.090Z,12.90
2023-04-08T02:43:27.013Z,10.70
2023-04-08T02:45:55.422Z,12.30
2023-04-08T02:48:24.046Z,13.30
2023-04-08T02:50:52.477Z,13.40
2023-04-08T02:53:23.827Z,12.30
2023-04-08T02:55:51.954Z,12.40
2023-04-08T02:58:20.183Z,12.30
2023-04-08T03:00:48.570Z,11.60
2023-04-08T03:03:18.159Z,11.00
2023-04-08T03:05:46.634Z,11.30
2023-04-08T03:08:14.810Z,12.70
2023-04-08T03:10:44.265Z,10.50
2023-04-08T03:13:12.528Z,12.40
2023-04-08T03:15:40.950Z,11.80
2023-04-08T03:18:09.529Z,12.10
2023-04-08T03:20:38.156Z,10.50
2023-04-08T03:23:08.971Z,10.60
2023-04-08T03:25:37.310Z,9.60
2023-04-08T03:28:05.340Z,8.50
2023-04-08T03:30:34.195Z,9.10
2023-04-08T03:33:07.404Z,10.20
2023-04-08T03:35:36.033Z,10.30
2023-04-08T03:38:04.784Z,10.90
2023-04-08T03:40:33.094Z,10.70
2023-04-08T03:43:03.221Z,15.00
2023-04-08T03:45:31.375Z,10.60
2023-04-08T03:48:00.366Z,9.70
2023-04-08T03:50:29.019Z,10.00
2023-04-08T03:52:57.204Z,10.60
2023-04-08T03:55:25.535Z,10.70
2023-04-08T03:57:53.565Z,10.30
2023-04-08T04:00:21.698Z,11.70
2023-04-08T04:02:51.844Z,11.30
2023-04-08T04:05:20.244Z,10.60
2023-04-08T04:07:49.426Z,10.20
2023-04-08T04:10:17.851Z,9.90
2023-04-08T04:12:47.417Z,9.60
2023-04-08T04:15:15.992Z,9.20
2023-04-08T04:17:44.757Z,10.10
2023-04-08T04:20:12.893Z,9.60
2023-04-08T04:22:41.402Z,9.60
2023-04-08T04:25:10.145Z,11.90
2023-04-08T04:27:38.403Z,10.20
2023-04-08T04:30:07.478Z,8.00
2023-04-08T04:32:36.050Z,9.00
2023-04-08T04:35:05.292Z,9.00
2023-04-08T04:37:33.666Z,10.20
2023-04-08T04:40:03.633Z,8.20
2023-04-08T04:42:32.998Z,9.00
2023-04-08T04:45:01.205Z,9.00
2023-04-08T04:47:32.865Z,7.80
2023-04-08T04:50:01.440Z,9.20
2023-04-08T04:52:36.458Z,7.90
2023-04-08T04:55:06.870Z,9.10
2023-04-08T04:57:34.939Z,9.20
2023-04-08T05:00:06.024Z,9.40
2023-04-08T05:02:34.375Z,9.30
2023-04-08T05:05:02.850Z,8.30
2023-04-08T05:07:31.614Z,8.90
2023-04-08T05:12:51.702Z,15.10
2023-04-08T05:15:20.156Z,10.20
2023-04-08T05:17:48.252Z,11.50
2023-04-08T05:20:17.625Z,9.70
2023-04-08T05:22:47.044Z,9.50
2023-04-08T05:25:15.088Z,9.20
2023-04-08T05:27:43.218Z,9.00
2023-04-08T05:30:12.165Z,10.20
2023-04-08T05:32:40.695Z,14.20
2023-04-08T05:35:10.014Z,12.30
2023-04-08T05:37:38.471Z,13.10
2023-04-08T05:40:09.778Z,14.30
2023-04-08T05:42:38.219Z,14.60
2023-04-08T05:45:07.390Z,13.70
2023-04-08T05:47:36.374Z,15.70
2023-04-08T05:50:04.885Z,20.40
2023-04-08T05:52:33.221Z,15.80
2023-04-08T05:55:01.394Z,15.20
2023-04-08T05:57:29.855Z,12.60
2023-04-08T05:59:58.053Z,10.40
2023-04-08T06:02:28.058Z,15.90
2023-04-08T06:04:56.532Z,12.80
2023-04-08T06:07:25.125Z,13.20
2023-04-08T06:09:53.170Z,12.10
2023-04-08T06:12:21.427Z,10.60
2023-04-08T06:14:54.154Z,13.00
2023-04-08T06:17:22.179Z,12.80
2023-04-08T06:19:50.515Z,14.50
2023-04-08T06:22:18.685Z,11.90
2023-04-08T06:24:48.261Z,11.70
2023-04-08T06:27:16.591Z,12.10
2023-04-08T06:29:44.949Z,12.60
2023-04-08T06:32:13.883Z,11.90
2023-04-08T06:34:42.232Z,14.30
2023-04-08T06:37:11.510Z,10.90
2023-04-08T06:39:41.334Z,12.60
2023-04-08T06:42:09.525Z,11.30
2023-04-08T06:44:47.844Z,15.00
2023-04-08T06:47:17.237Z,14.10
2023-04-08T06:49:45.442Z,13.30
2023-04-08T06:52:16.049Z,13.20
2023-04-08T06:54:44.245Z,16.40
2023-04-08T06:57:14.138Z,13.60
2023-04-08T06:59:42.302Z,14.60
2023-04-08T07:02:10.347Z,16.60
2023-04-08T07:04:38.897Z,12.80
2023-04-08T07:07:07.552Z,11.80
2023-04-08T07:09:46.104Z,15.30
2023-04-08T07:12:14.632Z,11.80
2023-04-08T07:14:42.746Z,9.40
2023-04-08T07:17:11.272Z,11.20
2023-04-08T07:19:41.408Z,16.20
2023-04-08T07:22:09.534Z,10.30
2023-04-08T07:24:38.499Z,10.40
2023-04-08T07:27:06.574Z,12.30
2023-04-08T07:29:35.896Z,13.80
2023-04-08T07:32:04.665Z,15.40
2023-04-08T07:34:36.033Z,11.30
2023-04-08T07:37:04.107Z,8.70
2023-04-08T07:39:32.138Z,15.00
2023-04-08T07:42:01.513Z,14.90
2023-04-08T07:44:29.860Z,12.20
2023-04-08T07:46:59.548Z,11.90
2023-04-08T07:49:27.935Z,16.60
2023-04-08T07:51:56.019Z,13.60
2023-04-08T07:54:24.459Z,10.00
2023-04-08T07:56:52.632Z,15.90
2023-04-08T07:59:21.644Z,14.60
2023-04-08T08:01:49.807Z,11.40
2023-04-08T08:04:18.739Z,11.00
2023-04-08T08:06:53.000Z,12.30
2023-04-08T08:09:21.900Z,11.30
2023-04-08T08:11:50.015Z,10.60
2023-04-08T08:14:19.543Z,14.70
2023-04-08T08:17:05.316Z,14.20
2023-04-08T08:19:33.608Z,17.00
2023-04-08T08:22:07.894Z,12.10
2023-04-08T08:24:36.064Z,19.10
2023-04-08T08:27:06.243Z,13.80
2023-04-08T08:29:34.300Z,11.90
2023-04-08T08:32:05.182Z,20.50
2023-04-08T08:34:33.728Z,16.10
2023-04-08T08:37:04.233Z,20.40
2023-04-08T08:39:33.580Z,16.60
2023-04-08T08:42:06.116Z,12.80
2023-04-08T08:44:36.239Z,15.80
2023-04-08T08:47:04.692Z,15.90
2023-04-08T08:49:32.807Z,20.00
2023-04-08T08:52:01.067Z,16.10
2023-04-08T08:54:29.525Z,10.80
2023-04-08T08:56:57.635Z,21.80
2023-04-08T08:59:25.997Z,18.40
2023-04-08T09:01:54.252Z,21.90
2023-04-08T09:04:23.144Z,19.80
2023-04-08T09:07:20.937Z,17.40
2023-04-08T09:09:50.481Z,18.20
2023-04-08T09:12:23.644Z,16.70
2023-04-08T09:14:52.214Z,15.00
2023-04-08T09:17:37.564Z,17.50
2023-04-08T09:20:15.264Z,13.20
2023-04-08T09:23:09.607Z,17.50
2023-04-08T09:25:38.509Z,15.60
2023-04-08T09:28:19.976Z,13.10
2023-04-08T09:30:48.119Z,17.70
2023-04-08T09:33:18.018Z,17.30
2023-04-08T09:35:47.302Z,13.90
2023-04-08T09:38:16.481Z,18.50
2023-04-08T09:40:44.951Z,13.60
2023-04-08T09:43:13.659Z,16.30
2023-04-08T09:45:42.805Z,19.10
2023-04-08T09:48:15.768Z,11.40
2023-04-08T09:53:22.764Z,20.00
2023-04-08T09:55:52.164Z,17.10
2023-04-08T09:58:25.957Z,17.00
2023-04-08T10:00:54.601Z,14.10
2023-04-08T10:03:23.780Z,15.80
2023-04-08T10:05:53.476Z,18.40
2023-04-08T10:08:21.740Z,12.40
2023-04-08T10:10:49.899Z,15.80
2023-04-08T10:13:23.390Z,15.90
2023-04-08T10:15:52.769Z,16.20
2023-04-08T10:18:22.095Z,16.50
2023-04-08T10:20:52.353Z,15.60
2023-04-08T10:23:21.241Z,19.30
2023-04-08T10:25:49.573Z,14.30
2023-04-08T10:28:18.322Z,11.00
2023-04-08T10:30:51.180Z,19.80
2023-04-08T10:33:27.303Z,26.00
2023-04-08T10:35:59.790Z,17.50
2023-04-08T10:38:28.163Z,15.20
2023-04-08T10:40:56.307Z,15.80
2023-04-08T10:43:24.687Z,14.20
2023-04-08T10:45:53.444Z,17.10
2023-04-08T10:48:24.583Z,25.30
2023-04-08T10:50:56.460Z,20.80
2023-04-08T10:53:32.310Z,19.90
2023-04-08T10:56:19.196Z,18.20
2023-04-08T10:58:54.273Z,7.70
2023-04-08T11:01:25.126Z,11.50
2023-04-08T11:03:53.914Z,9.20
2023-04-08T11:06:23.456Z,12.10
2023-04-08T11:08:52.297Z,10.60
2023-04-08T11:11:21.569Z,7.40
2023-04-08T11:13:53.978Z,24.20
2023-04-08T11:16:23.724Z,16.20
2023-04-08T11:18:52.116Z,12.10
2023-04-08T11:21:23.406Z,15.30
2023-04-08T11:23:53.588Z,14.30
2023-04-08T11:26:22.298Z,15.00
2023-04-08T11:28:51.925Z,14.20
2023-04-08T11:31:23.525Z,14.40
2023-04-08T11:33:56.946Z,11.10
2023-04-08T11:36:27.417Z,9.80
2023-04-08T11:38:55.863Z,12.20
2023-04-08T11:41:35.815Z,14.70
2023-04-08T11:44:03.927Z,12.00
2023-04-08T11:46:33.584Z,13.60
2023-04-08T11:49:06.705Z,14.70
2023-04-08T11:51:56.933Z,9.60
2023-04-08T11:54:32.686Z,17.40
2023-04-08T11:57:00.992Z,12.40
2023-04-08T11:59:30.949Z,11.90
2023-04-08T12:01:59.266Z,9.10
2023-04-08T12:04:27.685Z,11.50
2023-04-08T12:06:58.295Z,9.00
2023-04-08T12:09:27.487Z,10.70
2023-04-08T12:11:57.654Z,11.70
2023-04-08T12:14:28.216Z,8.80
2023-04-08T12:16:56.549Z,10.70
2023-04-08T12:19:24.913Z,11.80
2023-04-08T12:21:53.344Z,6.80
2023-04-08T12:24:22.054Z,7.90
2023-04-08T12:26:50.596Z,9.10
2023-04-08T12:29:19.283Z,13.30
2023-04-08T12:31:47.438Z,11.00
2023-04-08T12:34:16.767Z,11.00
2023-04-08T12:36:45.130Z,9.60
2023-04-08T12:39:15.520Z,8.10
2023-04-08T12:41:43.672Z,7.80
2023-04-08T12:44:11.922Z,13.00
2023-04-08T12:46:44.418Z,14.00
2023-04-08T12:49:12.626Z,13.80
2023-04-08T12:51:47.323Z,9.70
2023-04-08T12:54:17.015Z,15.30
2023-04-08T12:56:45.191Z,9.50
2023-04-08T12:59:16.483Z,13.60
2023-04-08T13:01:44.832Z,13.60
2023-04-08T13:04:24.490Z,14.20
2023-04-08T13:06:52.878Z,10.80
2023-04-08T13:09:21.430Z,16.70
2023-04-08T13:11:50.610Z,11.50
2023-04-08T13:14:20.071Z,11.00
2023-04-08T13:16:48.158Z,9.90
2023-04-08T13:19:16.490Z,17.40
2023-04-08T13:21:46.247Z,10.70
2023-04-08T13:24:14.631Z,13.10
2023-04-08T13:26:42.821Z,9.00
2023-04-08T13:29:14.083Z,11.00
2023-04-08T13:31:43.797Z,8.80
2023-04-08T13:34:12.364Z,13.60
2023-04-08T13:36:42.550Z,12.90
2023-04-08T13:39:10.695Z,13.80
2023-04-08T13:41:38.860Z,12.70
2023-04-08T13:44:07.734Z,7.90
2023-04-08T13:46:35.839Z,10.10
2023-04-08T13:49:05.405Z,13.60
2023-04-08T13:51:33.535Z,13.70
2023-04-08T13:54:08.688Z,10.90
2023-04-08T13:56:38.238Z,14.50
2023-04-08T13:59:07.542Z,9.90
2023-04-08T14:01:36.101Z,10.10
2023-04-08T14:04:05.083Z,4.60
2023-04-08T14:06:33.898Z,15.70
2023-04-08T14:09:03.991Z,10.10
2023-04-08T14:11:32.841Z,5.90
2023-04-08T14:14:01.120Z,4.30
2023-04-08T14:16:33.141Z,6.40
2023-04-08T14:19:01.780Z,7.30
2023-04-08T14:21:30.061Z,10.60
2023-04-08T14:23:59.673Z,11.50
2023-04-08T14:26:28.966Z,9.30
2023-04-08T14:28:59.093Z,10.70
2023-04-08T14:31:27.464Z,14.60
2023-04-08T14:33:55.844Z,19.40
2023-04-08T14:36:24.546Z,17.40
2023-04-08T14:38:53.278Z,14.90
2023-04-08T14:41:23.140Z,14.50
2023-04-08T14:43:51.414Z,16.30
2023-04-08T14:46:20.711Z,13.60
2023-04-08T14:48:48.924Z,14.90
2023-04-08T14:51:17.342Z,15.00
2023-04-08T14:53:56.187Z,16.30
2023-04-08T14:56:24.906Z,13.70
2023-04-08T14:58:53.617Z,12.00
2023-04-08T15:01:22.117Z,9.20
2023-04-08T15:03:50.678Z,9.00
2023-04-08T15:06:21.707Z,12.30
2023-04-08T15:08:50.745Z,11.00
2023-04-08T15:11:22.183Z,10.90
2023-04-08T15:13:59.552Z,13.70
2023-04-08T15:16:28.291Z,13.60
2023-04-08T15:18:59.749Z,12.00
2023-04-08T15:21:29.401Z,13.50
2023-04-08T15:23:57.753Z,15.60
2023-04-08T15:26:25.830Z,15.80
2023-04-08T15:28:55.472Z,9.50
2023-04-08T15:31:24.262Z,17.20
2023-04-08T15:33:53.182Z,14.40
2023-04-08T15:36:22.260Z,15.00
2023-04-08T15:38:51.503Z,19.70
2023-04-08T15:41:21.497Z,28.00
2023-04-08T15:43:50.425Z,25.70
2023-04-08T15:46:19.856Z,25.90
2023-04-08T15:48:48.680Z,27.60
2023-04-08T15:51:17.898Z,23.20
2023-04-08T15:53:46.508Z,21.50
2023-04-08T15:56:16.455Z,23.90
2023-04-08T15:58:46.265Z,29.20
2023-04-08T16:01:14.434Z,24.80
2023-04-08T16:03:44.912Z,27.30
2023-04-08T16:06:13.228Z,33.70
2023-04-08T16:08:42.247Z,30.70
2023-04-08T16:11:10.266Z,36.60
2023-04-08T16:13:40.779Z,28.80
2023-04-08T16:16:09.578Z,19.70
2023-04-08T16:18:38.201Z,16.10
2023-04-08T16:21:06.738Z,12.10
2023-04-08T16:23:37.615Z,17.50
2023-04-08T16:26:10.099Z,8.90
2023-04-08T16:28:40.164Z,9.10
2023-04-08T16:31:08.442Z,6.40
2023-04-08T16:33:39.138Z,13.10
2023-04-08T16:36:07.776Z,10.60
2023-04-08T16:38:35.924Z,13.60
2023-04-08T16:41:06.443Z,12.80
2023-04-08T16:43:34.840Z,13.10
2023-04-08T16:46:13.045Z,12.40
2023-04-08T16:48:42.171Z,11.40
2023-04-08T16:51:11.104Z,11.10
2023-04-08T16:53:39.792Z,12.40
2023-04-08T16:56:17.130Z,10.40
2023-04-08T16:58:45.576Z,14.50
2023-04-08T17:01:14.353Z,15.50
2023-04-08T17:03:44.769Z,10.20
2023-04-08T17:06:13.778Z,15.70
2023-04-08T17:08:49.338Z,17.20
2023-04-08T17:11:18.381Z,11.80
2023-04-08T17:13:47.101Z,11.60
2023-04-08T17:16:17.082Z,15.10
2023-04-08T17:18:46.962Z,13.60
2023-04-08T17:21:15.700Z,12.70
2023-04-08T17:23:52.317Z,9.20
2023-04-08T17:26:22.323Z,12.60
2023-04-08T17:31:06.462Z,14.90
2023-04-08T17:33:34.086Z,11.60
2023-04-08T17:36:01.308Z,14.90
2023-04-08T17:38:28.319Z,11.40
2023-04-08T17:40:55.204Z,11.10
2023-04-08T17:43:23.005Z,10.90
2023-04-08T17:45:51.015Z,18.50
2023-04-08T17:48:18.189Z,13.80
2023-04-08T17:50:45.079Z,14.10
2023-04-08T17:53:12.134Z,10.80
2023-04-08T17:55:38.873Z,11.90
2023-04-08T17:58:05.793Z,11.30
2023-04-08T18:00:32.722Z,8.70
2023-04-08T18:03:00.209Z,12.10
2023-04-08T18:05:28.370Z,9.10
2023-04-08T18:07:55.170Z,23.30
2023-04-08T18:10:23.536Z,15.50
2023-04-08T18:12:54.669Z,11.40
2023-04-08T18:15:24.613Z,16.20
2023-04-08T18:17:52.827Z,54.90
2023-04-08T18:20:19.887Z,81.70
2023-04-08T18:22:48.001Z,32.90
2023-04-08T18:25:15.044Z,13.70
2023-04-08T18:27:41.731Z,15.30
2023-04-08T18:30:11.094Z,12.70
2023-04-08T18:32:38.210Z,14.40
2023-04-08T18:35:05.635Z,13.80
2023-04-08T18:37:33.939Z,12.90
2023-04-08T18:40:01.998Z,10.10
2023-04-08T18:42:29.713Z,11.50
2023-04-08T18:44:56.515Z,13.40
2023-04-08T18:47:23.227Z,12.30
2023-04-08T18:49:50.335Z,13.10
2023-04-08T18:52:17.545Z,11.10
2023-04-08T18:54:45.910Z,16.30
2023-04-08T18:57:15.181Z,15.20
2023-04-08T18:59:46.826Z,13.00
2023-04-08T19:02:13.827Z,8.90
2023-04-08T19:04:40.921Z,12.00
2023-04-08T19:07:07.820Z,7.90
2023-04-08T19:09:34.682Z,12.90
2023-04-08T19:12:01.804Z,11.80
2023-04-08T19:14:29.274Z,10.90
2023-04-08T19:16:56.059Z,13.20
2023-04-08T19:19:22.962Z,11.70
2023-04-08T19:21:50.933Z,12.60
2023-04-08T19:24:24.281Z,14.60
2023-04-08T19:26:52.425Z,13.90
2023-04-08T19:29:22.367Z,12.80
2023-04-08T19:31:50.559Z,14.40
2023-04-08T19:34:17.336Z,22.50
2023-04-08T19:36:45.974Z,15.70
2023-04-08T19:39:12.876Z,13.60
2023-04-08T19:41:39.926Z,22.80
2023-04-08T19:44:06.892Z,15.10
2023-04-08T19:46:34.039Z,15.40
2023-04-08T19:49:01.435Z,20.90
2023-04-08T19:51:28.729Z,19.50
2023-04-08T19:53:55.680Z,15.40
2023-04-08T19:56:23.155Z,15.00
2023-04-08T19:58:50.143Z,18.60
2023-04-08T20:01:20.986Z,15.90
2023-04-08T20:03:50.263Z,17.10
2023-04-08T20:06:18.230Z,18.80
2023-04-08T20:08:45.379Z,17.10
2023-04-08T20:11:12.192Z,16.70
2023-04-08T20:13:39.555Z,15.20
2023-04-08T20:16:06.878Z,15.40
2023-04-08T20:18:37.246Z,15.60
2023-04-08T20:21:07.527Z,13.20
2023-04-08T20:23:38.717Z,13.60
2023-04-08T20:26:05.771Z,11.70
2023-04-08T20:28:32.999Z,11.70
2023-04-08T20:31:01.193Z,15.20
2023-04-08T20:33:28.306Z,13.70
2023-04-08T20:35:56.726Z,14.40
2023-04-08T20:38:24.399Z,13.00
2023-04-08T20:40:51.335Z,12.70
2023-04-08T20:43:18.120Z,13.30
2023-04-08T20:45:44.884Z,11.30
2023-04-08T20:48:12.964Z,14.40
2023-04-08T20:50:40.041Z,10.80
2023-04-08T20:53:12.441Z,17.20
2023-04-08T20:55:40.748Z,13.70
2023-04-08T20:58:07.702Z,14.00
2023-04-08T21:00:35.003Z,15.90
2023-04-08T21:03:02.533Z,16.70
2023-04-08T21:05:29.811Z,17.80
2023-04-08T21:07:56.897Z,14.30
2023-04-08T21:10:24.307Z,16.00
2023-04-08T21:12:55.805Z,14.40
2023-04-08T21:15:22.846Z,16.40
2023-04-08T21:17:50.357Z,15.50
2023-04-08T21:20:17.771Z,14.50
2023-04-08T21:22:44.878Z,16.70
2023-04-08T21:25:11.596Z,15.90
2023-04-08T21:27:40.666Z,19.60
2023-04-08T21:30:08.028Z,14.70
2023-04-08T21:32:37.007Z,12.60
2023-04-08T21:35:04.940Z,14.70
2023-04-08T21:37:31.665Z,14.40
2023-04-08T21:39:59.780Z,14.00
2023-04-08T21:42:27.014Z,12.50
2023-04-08T21:44:56.057Z,14.40
2023-04-08T21:47:22.920Z,14.90
2023-04-08T21:49:49.673Z,13.30
2023-04-08T21:52:17.291Z,11.70
2023-04-08T21:54:44.021Z,15.50
2023-04-08T21:57:10.797Z,12.10
2023-04-08T21:59:37.535Z,9.60
2023-04-08T22:02:04.627Z,11.60
2023-04-08T22:04:31.856Z,14.70
2023-04-08T22:06:58.722Z,11.70
2023-04-08T22:09:27.331Z,14.30
2023-04-08T22:11:54.051Z,10.90
2023-04-08T22:14:22.917Z,15.30
2023-04-08T22:16:50.386Z,12.80
2023-04-08T22:19:17.275Z,11.10
2023-04-08T22:21:44.189Z,15.30
2023-04-08T22:24:10.832Z,10.60
2023-04-08T22:26:37.689Z,9.10
2023-04-08T22:29:06.919Z,9.40
2023-04-08T22:31:34.113Z,14.50
2023-04-08T22:34:01.803Z,10.20
2023-04-08T22:36:28.497Z,13.90
2023-04-08T22:38:55.257Z,11.50
2023-04-08T22:41:22.801Z,11.20
2023-04-08T22:43:49.606Z,10.40
2023-04-08T22:46:17.908Z,15.40
2023-04-08T22:48:44.821Z,11.90
2023-04-08T22:51:12.164Z,12.10
2023-04-08T22:53:39.074Z,12.00
2023-04-08T22:56:05.688Z,10.60
2023-04-08T22:58:33.729Z,10.00
2023-04-08T23:01:01.804Z,12.70
2023-04-08T23:03:29.798Z,10.70
2023-04-08T23:05:57.797Z,13.40
2023-04-08T23:08:26.662Z,10.30
2023-04-08T23:10:53.606Z,9.50
2023-04-08T23:13:20.492Z,9.50
2023-04-08T23:15:48.029Z,10.00
2023-04-08T23:18:14.698Z,9.40
2023-04-08T23:20:46.777Z,10.40
2023-04-08T23:23:13.802Z,10.20
2023-04-08T23:25:40.405Z,13.40
2023-04-08T23:28:08.429Z,10.80
2023-04-08T23:30:36.434Z,11.20
2023-04-08T23:33:05.119Z,9.00
2023-04-08T23:35:31.873Z,11.60
2023-04-08T23:37:59.093Z,11.60
2023-04-08T23:40:26.017Z,13.30
2023-04-08T23:42:52.844Z,9.60
2023-04-08T23:45:20.449Z,10.60
2023-04-08T23:47:47.910Z,9.50
2023-04-08T23:50:15.092Z,10.30
2023-04-08T23:52:42.812Z,12.80
2023-04-08T23:55:09.919Z,15.90
2023-04-08T23:57:41.960Z,8.40
